createdAt,value
2023-04-30T00:04:01.526Z,16995.63
2023-04-30T00:08:24.588Z,16999.72
2023-04-30T00:12:46.592Z,17016.09
2023-04-30T00:17:08.626Z,16985.41
2023-04-30T00:21:30.377Z,17001.78
2023-04-30T00:25:53.648Z,17018.13
2023-04-30T00:30:15.395Z,17020.19
2023-04-30T00:34:37.343Z,17012.00
2023-04-30T00:38:59.098Z,17016.09
2023-04-30T00:43:22.513Z,17003.81
2023-04-30T00:47:44.413Z,16973.13
2023-04-30T00:52:06.466Z,17014.03
2023-04-30T00:56:29.138Z,16999.72
2023-04-30T01:00:54.635Z,16987.44
2023-04-30T01:05:16.481Z,16995.63
2023-04-30T01:09:38.308Z,17007.91
2023-04-30T01:14:07.143Z,17003.81
2023-04-30T01:18:35.665Z,16971.09
2023-04-30T01:23:11.300Z,16985.41
2023-04-30T01:28:00.206Z,16979.28
2023-04-30T01:32:21.931Z,17005.84
2023-04-30T01:36:54.517Z,17009.94
2023-04-30T01:41:23.857Z,16962.91
2023-04-30T01:45:57.612Z,17016.09
2023-04-30T01:50:28.843Z,16983.38
2023-04-30T01:54:55.411Z,16962.91
2023-04-30T01:59:17.691Z,16967.00
2023-04-30T02:03:40.950Z,16989.50
2023-04-30T02:08:03.184Z,16983.38
2023-04-30T02:12:24.969Z,16967.00
2023-04-30T02:16:46.742Z,16944.50
2023-04-30T02:21:11.039Z,16962.91
2023-04-30T02:25:32.882Z,16962.91
2023-04-30T02:29:54.800Z,16940.41
2023-04-30T02:34:17.206Z,16962.91
2023-04-30T02:38:40.278Z,16954.72
2023-04-30T02:43:02.224Z,16967.00
2023-04-30T02:47:24.081Z,16962.91
2023-04-30T02:51:46.048Z,16922.00
2023-04-30T02:56:09.190Z,16971.09
2023-04-30T03:00:30.952Z,16895.41
2023-04-30T03:04:52.728Z,16934.28
2023-04-30T03:09:14.507Z,16942.47
2023-04-30T03:13:37.658Z,16926.09
2023-04-30T03:17:59.588Z,16938.38
2023-04-30T03:22:21.351Z,16924.06
2023-04-30T03:26:43.243Z,16905.66
2023-04-30T03:31:06.668Z,16911.78
2023-04-30T03:35:28.594Z,16928.13
2023-04-30T03:39:50.560Z,16913.81
2023-04-30T03:44:12.379Z,16901.56
2023-04-30T03:48:35.460Z,16885.19
2023-04-30T03:52:57.363Z,16903.59
2023-04-30T03:57:19.593Z,16907.69
2023-04-30T04:01:41.448Z,16907.69
2023-04-30T04:06:04.727Z,16926.09
2023-04-30T04:10:26.615Z,16887.25
2023-04-30T04:14:48.359Z,16909.72
2023-04-30T04:19:10.157Z,16893.38
2023-04-30T04:23:33.246Z,16907.69
2023-04-30T04:27:54.986Z,16897.47
2023-04-30T04:32:16.724Z,16919.97
2023-04-30T04:36:38.480Z,16909.72
2023-04-30T04:41:01.550Z,16919.97
2023-04-30T04:45:23.498Z,16946.53
2023-04-30T04:49:45.250Z,16877.00
2023-04-30T04:54:07.049Z,16946.53
2023-04-30T04:58:30.174Z,16919.97
2023-04-30T05:02:52.014Z,16922.00
2023-04-30T05:07:13.808Z,16940.41
2023-04-30T05:11:35.756Z,16903.59
2023-04-30T05:15:59.157Z,16932.22
2023-04-30T05:20:21.142Z,16958.81
2023-04-30T05:24:42.867Z,16995.63
2023-04-30T05:29:04.609Z,17118.34
2023-04-30T05:33:27.722Z,17210.38
2023-04-30T05:37:49.832Z,17304.47
2023-04-30T05:42:12.579Z,17410.84
2023-04-30T05:46:34.639Z,17584.69
2023-04-30T05:50:57.787Z,17822.00
2023-04-30T05:55:19.574Z,17952.91
2023-04-30T05:59:41.570Z,18034.75
2023-04-30T06:04:03.518Z,18149.31
2023-04-30T06:08:26.583Z,18145.22
2023-04-30T06:12:48.444Z,18194.31
2023-04-30T06:17:10.256Z,18288.44
2023-04-30T06:21:32.057Z,18392.78
2023-04-30T06:25:55.187Z,18536.00
2023-04-30T06:30:17.358Z,18664.91
2023-04-30T06:34:39.106Z,18640.34
2023-04-30T06:39:00.841Z,18718.09
2023-04-30T06:43:24.249Z,18673.09
2023-04-30T06:47:46.045Z,18765.16
2023-04-30T06:52:07.871Z,18656.72
2023-04-30T06:56:29.623Z,18955.47
2023-04-30T07:00:52.914Z,18769.25
2023-04-30T07:05:14.800Z,18967.72
2023-04-30T07:09:36.536Z,18918.63
2023-04-30T07:13:58.254Z,18804.03
2023-04-30T07:18:21.335Z,18918.63
2023-04-30T07:22:43.567Z,19084.38
2023-04-30T07:27:05.360Z,18988.19
2023-04-30T07:31:27.172Z,18746.75
2023-04-30T07:35:50.463Z,18924.75
2023-04-30T07:40:15.075Z,19180.56
2023-04-30T07:44:39.127Z,19100.75
2023-04-30T07:49:00.874Z,19241.94
2023-04-30T07:53:24.265Z,18977.97
2023-04-30T07:57:46.051Z,19184.66
2023-04-30T08:02:08.763Z,19086.41
2023-04-30T08:06:30.639Z,19068.00
2023-04-30T08:10:53.905Z,19160.09
2023-04-30T08:15:15.759Z,19207.16
2023-04-30T08:19:37.664Z,19110.97
2023-04-30T08:23:59.453Z,19143.72
2023-04-30T08:28:22.540Z,19137.56
2023-04-30T08:32:44.318Z,19327.91
2023-04-30T08:37:06.471Z,19272.63
2023-04-30T08:41:33.019Z,19274.69
2023-04-30T08:45:57.006Z,19383.16
2023-04-30T08:50:19.047Z,19192.81
2023-04-30T08:54:42.350Z,19377.00
2023-04-30T08:59:04.122Z,19401.56
2023-04-30T09:03:27.410Z,19561.19
2023-04-30T09:08:02.606Z,19520.25
2023-04-30T09:12:25.583Z,19479.34
2023-04-30T09:16:48.682Z,19520.25
2023-04-30T09:21:11.800Z,19749.47
2023-04-30T09:25:39.341Z,19782.22
2023-04-30T09:30:01.164Z,19720.84
2023-04-30T09:34:34.004Z,19757.66
2023-04-30T09:38:57.545Z,19567.34
2023-04-30T09:43:19.296Z,19381.09
2023-04-30T09:47:41.191Z,19647.16
2023-04-30T09:52:03.042Z,19786.31
2023-04-30T09:56:29.176Z,19532.53
2023-04-30T10:00:53.489Z,19831.34
2023-04-30T10:05:17.335Z,19301.28
2023-04-30T10:09:41.724Z,19377.00
2023-04-30T10:14:10.120Z,20695.16
2023-04-30T10:18:34.611Z,20361.50
2023-04-30T10:22:57.019Z,20412.66
2023-04-30T10:27:19.221Z,20134.28
2023-04-30T10:31:46.356Z,20234.56
2023-04-30T10:36:14.317Z,19426.13
2023-04-30T10:40:36.742Z,18963.63
2023-04-30T10:44:58.715Z,20437.22
2023-04-30T10:49:26.569Z,20289.84
2023-04-30T10:53:50.990Z,20908.06
2023-04-30T10:58:23.905Z,19430.22
2023-04-30T11:02:47.078Z,20027.84
2023-04-30T11:07:10.643Z,19266.50
2023-04-30T11:11:34.039Z,20336.94
2023-04-30T11:16:02.981Z,20572.34
2023-04-30T11:20:26.273Z,20498.63
2023-04-30T11:25:06.448Z,20547.78
2023-04-30T11:29:28.397Z,20408.56
2023-04-30T11:33:50.651Z,19548.91
2023-04-30T11:38:13.300Z,19495.72
2023-04-30T11:42:37.195Z,20244.81
2023-04-30T11:47:00.291Z,20601.00
2023-04-30T11:51:23.524Z,20654.22
2023-04-30T11:55:45.238Z,20883.50
2023-04-30T12:00:16.963Z,20801.63
2023-04-30T12:04:38.792Z,19919.38
2023-04-30T12:09:02.349Z,19659.44
2023-04-30T12:13:24.050Z,19604.19
2023-04-30T12:17:47.208Z,19213.28
2023-04-30T12:22:09.456Z,19450.69
2023-04-30T12:26:37.735Z,19872.28
2023-04-30T12:30:59.709Z,19864.09
2023-04-30T12:35:24.017Z,19340.16
2023-04-30T12:39:47.354Z,20056.50
2023-04-30T12:44:17.086Z,20439.28
2023-04-30T12:48:44.093Z,20228.44
2023-04-30T12:53:07.463Z,20267.31
2023-04-30T12:57:29.268Z,19917.31
2023-04-30T13:01:51.004Z,19555.06
2023-04-30T13:06:12.843Z,19804.75
2023-04-30T13:10:35.961Z,19331.97
2023-04-30T13:14:57.717Z,19362.69
2023-04-30T13:19:19.732Z,19530.50
2023-04-30T13:23:51.870Z,19162.13
2023-04-30T13:28:16.321Z,18945.22
2023-04-30T13:32:38.184Z,18932.94
2023-04-30T13:36:59.915Z,18908.38
2023-04-30T13:41:21.698Z,18965.69
2023-04-30T13:45:44.786Z,18953.41
2023-04-30T13:50:08.277Z,19002.53
2023-04-30T13:54:29.997Z,19002.53
2023-04-30T13:58:51.700Z,19315.63
2023-04-30T14:03:14.893Z,19522.31
2023-04-30T14:07:36.710Z,19569.38
2023-04-30T14:11:58.593Z,19303.34
2023-04-30T14:16:20.602Z,19311.53
2023-04-30T14:20:43.740Z,18941.13
2023-04-30T14:25:06.773Z,19256.25
2023-04-30T14:29:28.547Z,19158.03
2023-04-30T14:33:50.264Z,19164.19
2023-04-30T14:38:13.779Z,18990.25
2023-04-30T14:42:36.557Z,18947.28
2023-04-30T14:46:58.438Z,18885.88
2023-04-30T14:51:20.166Z,18922.72
2023-04-30T14:55:43.454Z,18783.56
2023-04-30T15:00:05.976Z,18685.34
2023-04-30T15:04:27.706Z,18750.84
2023-04-30T15:08:49.517Z,18750.84
2023-04-30T15:13:12.635Z,18828.59
2023-04-30T15:17:35.258Z,18742.66
2023-04-30T15:21:57.013Z,18773.34
2023-04-30T15:26:18.966Z,18816.31
2023-04-30T15:30:42.058Z,18734.47
2023-04-30T15:35:04.326Z,18754.94
2023-04-30T15:39:26.095Z,18844.97
2023-04-30T15:43:48.055Z,18705.81
2023-04-30T15:48:11.173Z,18611.69
2023-04-30T15:52:32.917Z,18687.41
2023-04-30T15:56:54.649Z,18648.53
2023-04-30T16:01:16.671Z,18542.13
2023-04-30T16:05:40.026Z,18533.94
2023-04-30T16:10:02.487Z,18513.50
2023-04-30T16:14:24.532Z,18511.44
2023-04-30T16:18:46.505Z,18538.03
2023-04-30T16:23:09.626Z,18476.66
2023-04-30T16:27:31.369Z,18452.09
2023-04-30T16:31:53.608Z,18458.25
2023-04-30T16:36:15.343Z,18431.66
2023-04-30T16:40:38.425Z,18423.47
2023-04-30T16:45:00.172Z,18386.63
2023-04-30T16:49:21.887Z,18343.66
2023-04-30T16:53:44.016Z,18370.28
2023-04-30T16:58:07.147Z,18353.91
2023-04-30T17:02:28.976Z,18310.94
2023-04-30T17:06:50.887Z,18380.50
2023-04-30T17:11:12.700Z,18343.66
2023-04-30T17:15:35.811Z,18380.50
2023-04-30T17:19:57.774Z,18362.09
2023-04-30T17:24:19.579Z,18321.16
2023-04-30T17:28:41.310Z,18278.19
2023-04-30T17:33:04.448Z,18233.19
2023-04-30T17:37:26.152Z,18229.09
2023-04-30T17:41:48.033Z,18249.56
2023-04-30T17:46:09.805Z,18220.91
2023-04-30T17:50:33.025Z,18186.13
2023-04-30T17:54:55.046Z,18165.69
2023-04-30T17:59:16.864Z,18137.03
2023-04-30T18:03:38.825Z,18087.94
2023-04-30T18:08:01.930Z,18137.03
2023-04-30T18:12:23.727Z,18124.75
2023-04-30T18:16:45.545Z,18118.63
2023-04-30T18:21:07.461Z,18100.22
2023-04-30T18:25:30.585Z,18092.03
2023-04-30T18:29:52.420Z,18055.22
2023-04-30T18:34:14.251Z,18020.44
2023-04-30T18:38:36.230Z,17916.09
2023-04-30T18:42:59.288Z,17967.25
2023-04-30T18:47:21.057Z,17930.41
2023-04-30T18:51:42.845Z,17897.69
2023-04-30T18:56:05.145Z,17891.53
2023-04-30T19:00:28.241Z,17877.22
2023-04-30T19:04:50.487Z,17875.19
2023-04-30T19:09:12.243Z,17832.22
2023-04-30T19:13:33.975Z,17838.34
2023-04-30T19:18:00.182Z,17809.72
2023-04-30T19:22:21.948Z,17783.13
2023-04-30T19:26:43.694Z,17834.25
2023-04-30T19:31:05.568Z,17813.81
2023-04-30T19:35:28.908Z,17785.16
2023-04-30T19:39:50.634Z,17783.13
2023-04-30T19:44:12.378Z,17781.09
2023-04-30T19:48:34.107Z,17756.53
2023-04-30T19:52:57.448Z,17768.81
2023-04-30T19:57:19.217Z,17797.44
2023-04-30T20:01:41.297Z,17725.84
2023-04-30T20:06:03.086Z,17703.34
2023-04-30T20:10:26.493Z,17689.03
2023-04-30T20:14:48.234Z,17699.25
2023-04-30T20:19:09.998Z,17635.84
2023-04-30T20:23:31.761Z,17648.13
2023-04-30T20:27:54.832Z,17629.72
2023-04-30T20:32:16.585Z,17650.16
2023-04-30T20:36:38.396Z,17592.88
2023-04-30T20:41:00.176Z,17629.72
2023-04-30T20:45:23.436Z,17637.88
2023-04-30T20:49:45.217Z,17613.34
2023-04-30T20:54:06.907Z,17625.63
2023-04-30T20:58:28.735Z,17580.63
2023-04-30T21:02:52.312Z,17580.63
2023-04-30T21:07:14.075Z,17609.25
2023-04-30T21:11:36.041Z,17580.63
2023-04-30T21:15:57.819Z,17562.19
2023-04-30T21:20:20.888Z,17543.78
2023-04-30T21:24:42.667Z,17578.56
2023-04-30T21:29:04.651Z,17562.19
2023-04-30T21:33:26.455Z,17549.94
2023-04-30T21:37:49.519Z,17576.53
2023-04-30T21:42:11.234Z,17511.06
2023-04-30T21:46:33.044Z,17519.25
2023-04-30T21:50:54.807Z,17519.25
2023-04-30T21:55:17.922Z,17515.16
2023-04-30T21:59:39.617Z,17515.16
2023-04-30T22:04:01.695Z,17484.47
2023-04-30T22:08:23.582Z,17496.75
2023-04-30T22:12:48.001Z,17498.78
2023-04-30T22:17:10.064Z,17492.66
2023-04-30T22:21:31.899Z,17496.75
2023-04-30T22:25:53.638Z,17482.44
2023-04-30T22:30:16.739Z,17490.59
2023-04-30T22:34:39.725Z,17466.06
2023-04-30T22:39:01.458Z,17470.16
2023-04-30T22:43:23.667Z,17478.34
2023-04-30T22:47:47.037Z,17447.66
2023-04-30T22:52:08.830Z,17480.38
2023-04-30T22:56:30.582Z,17457.88
2023-04-30T23:00:52.437Z,17455.84
2023-04-30T23:05:15.964Z,17470.16
2023-04-30T23:09:37.692Z,17437.44
2023-04-30T23:13:59.426Z,17443.56
2023-04-30T23:18:21.139Z,17449.69
2023-04-30T23:22:44.249Z,17500.84
2023-04-30T23:27:05.962Z,17470.16
2023-04-30T23:31:27.716Z,17468.09
2023-04-30T23:35:49.610Z,17461.97
2023-04-30T23:40:12.862Z,17437.44
2023-04-30T23:44:34.545Z,17437.44
2023-04-30T23:48:56.260Z,17513.09
2023-04-30T23:53:17.955Z,17541.75
2023-04-30T23:57:41.093Z,17572.44
